createdAt,value
2023-01-30T00:00:04.220Z,61.63
2023-01-30T00:03:09.793Z,61.38
2023-01-30T00:06:15.545Z,61.55
2023-01-30T00:09:20.916Z,61.32
2023-01-30T00:12:26.170Z,61.95
2023-01-30T00:15:31.550Z,61.83
2023-01-30T00:18:37.003Z,61.39
2023-01-30T00:21:42.264Z,61.67
2023-01-30T00:24:48.047Z,61.84
2023-01-30T00:27:53.414Z,62.43
2023-01-30T00:30:58.785Z,62.73
2023-01-30T00:34:04.026Z,61.95
2023-01-30T00:37:09.348Z,61.81
2023-01-30T00:40:14.950Z,61.71
2023-01-30T00:43:38.972Z,61.91
2023-01-30T00:47:02.354Z,61.85
2023-01-30T00:50:08.402Z,62.11
2023-01-30T00:53:15.129Z,62.69
2023-01-30T00:56:20.460Z,62.93
2023-01-30T00:59:25.918Z,62.53
2023-01-30T01:02:31.229Z,62.05
2023-01-30T01:05:37.424Z,61.28
2023-01-30T01:08:42.876Z,61.20
2023-01-30T01:11:49.001Z,62.81
2023-01-30T01:14:54.242Z,61.74
2023-01-30T01:18:00.768Z,61.43
2023-01-30T01:21:06.389Z,60.63
2023-01-30T01:24:13.393Z,60.22
2023-01-30T01:27:19.497Z,60.05
2023-01-30T01:30:24.731Z,60.01
2023-01-30T01:33:30.339Z,60.06
2023-01-30T01:36:52.719Z,60.26
2023-01-30T01:40:17.029Z,59.26
2023-01-30T01:43:23.855Z,61.09
2023-01-30T01:46:32.179Z,64.80
2023-01-30T01:49:37.961Z,63.48
2023-01-30T01:52:43.931Z,62.12
2023-01-30T01:55:51.358Z,61.30
2023-01-30T01:58:58.388Z,60.79
2023-01-30T02:02:07.288Z,60.21
2023-01-30T02:05:13.777Z,59.54
2023-01-30T02:08:20.884Z,59.84
2023-01-30T02:11:30.719Z,63.91
2023-01-30T02:14:36.890Z,64.07
2023-01-30T02:17:42.215Z,62.47
2023-01-30T02:20:57.785Z,62.12
2023-01-30T02:24:18.711Z,61.10
2023-01-30T02:27:30.481Z,60.17
2023-01-30T02:30:44.061Z,59.48
2023-01-30T02:33:54.393Z,61.01
2023-01-30T02:37:05.491Z,64.45
2023-01-30T02:40:18.009Z,63.35
2023-01-30T02:43:28.722Z,61.82
2023-01-30T02:46:42.098Z,60.90
2023-01-30T02:49:49.895Z,60.06
2023-01-30T02:52:55.507Z,59.57
2023-01-30T02:56:00.888Z,60.30
2023-01-30T02:59:07.135Z,63.85
2023-01-30T03:02:22.392Z,63.64
2023-01-30T03:05:39.028Z,61.90
2023-01-30T03:08:47.909Z,60.72
2023-01-30T03:11:59.743Z,60.10
2023-01-30T03:15:11.751Z,60.47
2023-01-30T03:18:17.737Z,59.96
2023-01-30T03:21:22.981Z,59.67
2023-01-30T03:24:30.575Z,59.79
2023-01-30T03:27:36.360Z,63.78
2023-01-30T03:30:41.669Z,63.61
2023-01-30T03:33:48.390Z,62.25
2023-01-30T03:36:53.877Z,61.26
2023-01-30T03:40:01.235Z,60.53
2023-01-30T03:43:06.733Z,60.02
2023-01-30T03:46:12.356Z,59.89
2023-01-30T03:49:18.211Z,59.78
2023-01-30T03:52:23.533Z,59.19
2023-01-30T03:55:29.087Z,62.43
2023-01-30T03:58:34.859Z,65.29
2023-01-30T04:01:51.157Z,62.87
2023-01-30T04:04:56.856Z,62.33
2023-01-30T04:08:02.213Z,60.72
2023-01-30T04:11:07.731Z,59.63
2023-01-30T04:14:13.138Z,60.20
2023-01-30T04:17:29.684Z,64.64
2023-01-30T04:20:55.680Z,65.35
2023-01-30T04:24:07.752Z,63.65
2023-01-30T04:27:13.236Z,62.25
2023-01-30T04:30:26.189Z,61.47
2023-01-30T04:33:37.134Z,61.15
2023-01-30T04:36:42.882Z,60.34
2023-01-30T04:39:48.248Z,60.45
2023-01-30T04:42:53.588Z,60.18
2023-01-30T04:46:14.499Z,60.60
2023-01-30T04:49:19.955Z,61.38
2023-01-30T04:52:25.976Z,61.99
2023-01-30T04:55:31.491Z,62.12
2023-01-30T04:58:37.028Z,62.88
2023-01-30T05:01:42.499Z,63.33
2023-01-30T05:04:49.696Z,63.68
2023-01-30T05:07:55.438Z,63.02
2023-01-30T05:11:00.670Z,62.82
2023-01-30T05:14:06.289Z,62.38
2023-01-30T05:17:11.520Z,62.43
2023-01-30T05:20:17.035Z,62.76
2023-01-30T05:23:22.525Z,63.58
2023-01-30T05:26:27.964Z,63.00
2023-01-30T05:29:33.469Z,63.79
2023-01-30T05:32:39.000Z,63.93
2023-01-30T05:35:48.695Z,63.51
2023-01-30T05:38:54.531Z,64.61
2023-01-30T05:42:00.093Z,64.29
2023-01-30T05:45:05.811Z,63.69
2023-01-30T05:48:11.179Z,63.72
2023-01-30T05:51:21.124Z,63.27
2023-01-30T05:54:26.501Z,63.09
2023-01-30T05:57:31.778Z,63.40
2023-01-30T06:00:37.274Z,64.64
2023-01-30T06:03:42.576Z,65.36
2023-01-30T06:06:49.794Z,65.26
2023-01-30T06:09:54.996Z,65.17
2023-01-30T06:13:00.878Z,65.16
2023-01-30T06:16:06.993Z,64.36
2023-01-30T06:19:12.789Z,66.73
2023-01-30T06:22:18.337Z,67.32
2023-01-30T06:25:23.700Z,67.49
2023-01-30T06:28:29.139Z,66.65
2023-01-30T06:31:34.727Z,66.36
2023-01-30T06:34:40.129Z,66.71
2023-01-30T06:37:47.012Z,66.74
2023-01-30T06:40:52.497Z,66.72
2023-01-30T06:43:57.792Z,67.43
2023-01-30T06:47:03.380Z,67.29
2023-01-30T06:50:09.302Z,67.04
2023-01-30T06:53:14.611Z,67.16
2023-01-30T06:56:22.799Z,66.35
2023-01-30T06:59:28.323Z,66.76
2023-01-30T07:02:37.532Z,67.30
2023-01-30T07:05:43.989Z,67.93
2023-01-30T07:08:49.371Z,66.52
2023-01-30T07:11:56.987Z,66.95
2023-01-30T07:15:02.569Z,67.95
2023-01-30T07:18:08.202Z,67.68
2023-01-30T07:21:14.901Z,67.46
2023-01-30T07:24:20.566Z,67.60
2023-01-30T07:27:26.049Z,67.88
2023-01-30T07:30:32.743Z,67.47
2023-01-30T07:33:40.729Z,68.33
2023-01-30T07:36:46.002Z,68.78
2023-01-30T07:39:51.459Z,67.72
2023-01-30T07:43:03.710Z,67.91
2023-01-30T07:46:09.245Z,68.60
2023-01-30T07:49:14.709Z,67.94
2023-01-30T07:52:20.197Z,67.51
2023-01-30T07:55:25.970Z,69.58
2023-01-30T07:58:31.320Z,68.72
2023-01-30T08:01:36.864Z,68.22
2023-01-30T08:04:42.216Z,67.26
2023-01-30T08:07:48.496Z,67.29
2023-01-30T08:10:53.988Z,66.61
2023-01-30T08:13:59.338Z,67.65
2023-01-30T08:17:06.774Z,66.61
2023-01-30T08:20:16.977Z,68.17
2023-01-30T08:23:23.048Z,68.82
2023-01-30T08:26:28.417Z,69.18
2023-01-30T08:29:35.684Z,68.34
2023-01-30T08:32:41.439Z,68.59
2023-01-30T08:35:46.897Z,68.15
2023-01-30T08:38:52.386Z,66.86
2023-01-30T08:41:57.775Z,66.50
2023-01-30T08:45:03.378Z,66.23
2023-01-30T08:48:09.359Z,66.97
2023-01-30T08:51:14.844Z,67.08
2023-01-30T08:54:21.258Z,67.12
2023-01-30T08:57:26.658Z,68.46
2023-01-30T09:00:32.036Z,67.26
2023-01-30T09:03:37.394Z,66.40
2023-01-30T09:06:42.931Z,66.52
2023-01-30T09:09:48.721Z,67.92
2023-01-30T09:12:54.845Z,66.94
2023-01-30T09:16:00.623Z,66.99
2023-01-30T09:19:06.031Z,67.07
2023-01-30T09:22:11.450Z,66.40
2023-01-30T09:25:17.389Z,66.44
2023-01-30T09:28:24.247Z,67.99
2023-01-30T09:31:29.699Z,67.20
2023-01-30T09:34:35.338Z,66.26
2023-01-30T09:37:47.561Z,65.83
2023-01-30T09:41:00.217Z,66.96
2023-01-30T09:44:17.542Z,66.32
2023-01-30T09:47:27.767Z,66.12
2023-01-30T09:50:44.568Z,66.76
2023-01-30T09:54:05.253Z,67.32
2023-01-30T09:57:20.596Z,67.44
2023-01-30T10:00:31.701Z,66.15
2023-01-30T10:03:40.677Z,67.10
2023-01-30T10:06:57.981Z,66.59
2023-01-30T10:10:10.277Z,66.10
2023-01-30T10:13:26.218Z,66.51
2023-01-30T10:16:36.285Z,66.05
2023-01-30T10:19:51.439Z,65.83
2023-01-30T10:23:02.359Z,66.23
2023-01-30T10:26:10.734Z,65.88
2023-01-30T10:29:20.959Z,64.14
2023-01-30T10:32:29.107Z,64.15
2023-01-30T10:35:36.428Z,63.78
2023-01-30T10:38:45.830Z,63.36
2023-01-30T10:41:53.744Z,62.72
2023-01-30T10:45:01.796Z,62.08
2023-01-30T10:48:16.726Z,63.67
2023-01-30T10:51:27.920Z,64.34
2023-01-30T10:54:37.030Z,63.88
2023-01-30T10:57:51.425Z,64.41
2023-01-30T11:01:01.178Z,65.36
2023-01-30T11:04:15.369Z,65.45
2023-01-30T11:07:20.874Z,66.02
2023-01-30T11:10:31.119Z,64.65
2023-01-30T11:13:38.510Z,64.25
2023-01-30T11:16:48.164Z,64.82
2023-01-30T11:19:58.124Z,66.38
2023-01-30T11:23:07.824Z,66.20
2023-01-30T11:26:20.623Z,64.95
2023-01-30T11:29:28.623Z,64.22
2023-01-30T11:32:37.313Z,64.18
2023-01-30T11:35:54.403Z,63.00
2023-01-30T11:39:01.322Z,64.31
2023-01-30T11:42:12.083Z,63.27
2023-01-30T11:45:20.530Z,63.17
2023-01-30T11:48:33.008Z,62.41
2023-01-30T11:51:55.633Z,64.20
2023-01-30T11:55:05.669Z,64.94
2023-01-30T11:58:11.190Z,65.69
2023-01-30T12:01:17.951Z,65.04
2023-01-30T12:04:29.495Z,63.16
2023-01-30T12:07:37.724Z,62.62
2023-01-30T12:10:43.883Z,63.30
2023-01-30T12:13:50.253Z,63.73
2023-01-30T12:17:05.008Z,64.58
2023-01-30T12:20:15.240Z,64.34
2023-01-30T12:23:25.549Z,64.33
2023-01-30T12:26:38.048Z,63.91
2023-01-30T12:29:52.114Z,63.08
2023-01-30T12:36:14.983Z,62.30
2023-01-30T12:39:31.614Z,61.48
2023-01-30T12:42:48.794Z,61.47
2023-01-30T12:46:01.833Z,61.47
2023-01-30T12:49:16.276Z,61.70
2023-01-30T12:52:40.938Z,62.16
2023-01-30T12:55:49.143Z,62.67
2023-01-30T12:58:58.663Z,62.05
2023-01-30T13:02:14.277Z,61.22
2023-01-30T13:05:26.574Z,60.99
2023-01-30T13:08:43.812Z,60.44
2023-01-30T13:11:55.715Z,59.78
2023-01-30T13:15:05.016Z,59.28
2023-01-30T13:18:15.322Z,61.55
2023-01-30T13:21:24.579Z,63.66
2023-01-30T13:24:34.229Z,62.47
2023-01-30T13:27:43.852Z,60.96
2023-01-30T13:30:50.937Z,61.50
2023-01-30T13:34:02.648Z,62.00
2023-01-30T13:37:10.053Z,61.48
2023-01-30T13:40:20.660Z,62.50
2023-01-30T13:43:28.511Z,61.65
2023-01-30T13:46:37.235Z,61.99
2023-01-30T13:49:46.963Z,62.17
2023-01-30T13:52:56.523Z,61.97
2023-01-30T13:56:08.945Z,62.26
2023-01-30T13:59:24.960Z,63.52
2023-01-30T14:02:34.330Z,62.15
2023-01-30T14:06:02.006Z,63.46
2023-01-30T14:09:19.091Z,63.46
2023-01-30T14:12:25.937Z,63.39
2023-01-30T14:15:34.113Z,64.58
2023-01-30T14:18:39.705Z,65.01
2023-01-30T14:21:55.040Z,67.36
2023-01-30T14:25:18.415Z,67.75
2023-01-30T14:28:52.702Z,67.50
2023-01-30T14:31:58.106Z,70.12
2023-01-30T14:35:22.784Z,70.97
2023-01-30T14:38:29.674Z,71.86
2023-01-30T14:41:34.977Z,72.32
2023-01-30T14:45:03.769Z,71.60
2023-01-30T14:48:27.513Z,72.03
2023-01-30T14:51:36.061Z,72.69
2023-01-30T14:54:49.423Z,71.00
2023-01-30T14:57:59.525Z,71.67
2023-01-30T15:01:04.998Z,72.04
2023-01-30T15:04:16.671Z,71.75
2023-01-30T15:07:24.333Z,71.29
2023-01-30T15:10:42.141Z,69.32
2023-01-30T15:13:55.882Z,68.58
2023-01-30T15:17:19.694Z,69.65
2023-01-30T15:20:32.457Z,68.22
2023-01-30T15:23:55.362Z,67.97
2023-01-30T15:27:07.015Z,68.37
2023-01-30T15:30:23.757Z,69.50
2023-01-30T15:33:32.153Z,67.83
2023-01-30T15:36:40.759Z,66.63
2023-01-30T15:39:47.485Z,68.18
2023-01-30T15:43:03.459Z,68.47
2023-01-30T15:46:14.407Z,69.46
2023-01-30T15:49:36.317Z,68.88
2023-01-30T15:52:48.296Z,68.66
2023-01-30T15:55:54.758Z,67.91
2023-01-30T15:59:01.521Z,68.02
2023-01-30T16:02:14.695Z,67.96
2023-01-30T16:05:25.269Z,66.89
2023-01-30T16:08:31.579Z,65.79
2023-01-30T16:11:38.819Z,64.93
2023-01-30T16:14:46.167Z,64.63
2023-01-30T16:17:57.000Z,65.03
2023-01-30T16:21:06.342Z,64.93
2023-01-30T16:24:17.735Z,64.33
2023-01-30T16:27:30.388Z,63.63
2023-01-30T16:30:35.945Z,63.33
2023-01-30T16:33:41.576Z,64.57
2023-01-30T16:36:56.309Z,67.85
2023-01-30T16:40:06.139Z,68.73
2023-01-30T16:43:21.862Z,71.39
2023-01-30T16:46:48.553Z,72.33
2023-01-30T16:49:54.387Z,73.95
2023-01-30T16:53:02.352Z,74.63
2023-01-30T16:56:10.858Z,76.41
2023-01-30T16:59:24.356Z,76.92
2023-01-30T17:02:34.378Z,74.63
2023-01-30T17:05:40.533Z,73.69
2023-01-30T17:08:52.397Z,72.41
2023-01-30T17:11:57.775Z,72.01
2023-01-30T17:15:17.091Z,70.59
2023-01-30T17:18:22.856Z,72.16
2023-01-30T17:21:29.172Z,73.51
2023-01-30T17:24:36.339Z,74.27
2023-01-30T17:27:42.053Z,74.45
2023-01-30T17:30:51.508Z,74.77
2023-01-30T17:33:57.249Z,74.03
2023-01-30T17:37:02.789Z,74.70
2023-01-30T17:40:15.418Z,74.44
2023-01-30T17:43:20.847Z,75.77
2023-01-30T17:46:32.434Z,76.01
2023-01-30T17:49:38.042Z,74.13
2023-01-30T17:52:43.460Z,75.42
2023-01-30T17:55:49.990Z,75.33
2023-01-30T17:58:58.756Z,73.87
2023-01-30T18:02:04.324Z,73.05
2023-01-30T18:05:10.597Z,74.09
2023-01-30T18:08:20.224Z,73.40
2023-01-30T18:11:26.728Z,72.76
2023-01-30T18:14:35.660Z,72.74
2023-01-30T18:17:43.891Z,73.25
2023-01-30T18:20:52.097Z,74.12
2023-01-30T18:23:57.503Z,76.01
2023-01-30T18:27:02.936Z,74.95
2023-01-30T18:30:09.324Z,73.76
2023-01-30T18:33:16.272Z,73.84
2023-01-30T18:36:37.984Z,74.23
2023-01-30T18:39:56.860Z,76.85
2023-01-30T18:43:05.211Z,78.20
2023-01-30T18:46:13.235Z,78.72
2023-01-30T18:49:20.023Z,78.59
2023-01-30T18:52:25.595Z,79.25
2023-01-30T18:55:37.800Z,78.52
2023-01-30T18:58:52.485Z,77.92
2023-01-30T19:02:00.307Z,77.22
2023-01-30T19:05:06.063Z,77.34
2023-01-30T19:08:15.225Z,77.18
2023-01-30T19:11:39.475Z,74.97
2023-01-30T19:14:44.982Z,74.77
2023-01-30T19:17:52.862Z,74.80
2023-01-30T19:21:01.408Z,74.66
2023-01-30T19:24:08.297Z,73.77
2023-01-30T19:27:19.951Z,73.11
2023-01-30T19:30:25.770Z,73.78
2023-01-30T19:33:38.705Z,74.93
2023-01-30T19:36:46.383Z,75.69
2023-01-30T19:39:58.003Z,75.52
2023-01-30T19:43:10.924Z,75.61
2023-01-30T19:46:28.872Z,75.83
2023-01-30T19:49:48.544Z,75.93
2023-01-30T19:52:59.718Z,76.20
2023-01-30T19:56:08.444Z,74.06
2023-01-30T19:59:23.711Z,74.53
2023-01-30T20:02:30.220Z,75.16
2023-01-30T20:05:41.007Z,74.08
2023-01-30T20:08:51.630Z,73.06
2023-01-30T20:12:03.024Z,72.28
2023-01-30T20:15:11.555Z,72.07
2023-01-30T20:18:23.724Z,72.99
2023-01-30T20:21:41.919Z,73.31
2023-01-30T20:24:54.794Z,72.68
2023-01-30T20:28:16.239Z,70.67
2023-01-30T20:31:27.333Z,70.37
2023-01-30T20:34:38.107Z,71.09
2023-01-30T20:37:46.342Z,72.60
2023-01-30T20:41:05.496Z,74.15
2023-01-30T20:44:16.523Z,73.47
2023-01-30T20:47:27.438Z,76.30
2023-01-30T20:50:35.954Z,77.19
2023-01-30T20:53:47.201Z,75.54
2023-01-30T20:56:56.740Z,73.80
2023-01-30T21:00:04.414Z,74.69
2023-01-30T21:03:13.140Z,74.33
2023-01-30T21:06:42.531Z,75.46
2023-01-30T21:09:45.410Z,77.87
2023-01-30T21:12:52.996Z,78.06
2023-01-30T21:16:03.294Z,77.70
2023-01-30T21:19:11.151Z,76.64
2023-01-30T21:22:19.678Z,74.74
2023-01-30T21:25:25.540Z,76.17
2023-01-30T21:28:32.085Z,75.88
2023-01-30T21:31:39.220Z,76.34
2023-01-30T21:34:44.572Z,76.73
2023-01-30T21:38:08.233Z,75.79
2023-01-30T21:41:36.965Z,75.77
2023-01-30T21:44:46.618Z,76.76
2023-01-30T21:47:53.508Z,76.15
2023-01-30T21:50:58.959Z,76.09
2023-01-30T21:54:05.874Z,77.88
2023-01-30T21:57:11.395Z,76.90
2023-01-30T22:00:16.791Z,76.47
2023-01-30T22:03:26.731Z,76.03
2023-01-30T22:06:32.283Z,77.11
2023-01-30T22:09:37.977Z,75.62
2023-01-30T22:12:43.685Z,75.67
2023-01-30T22:15:49.050Z,74.78
2023-01-30T22:18:58.221Z,76.16
2023-01-30T22:22:03.956Z,75.68
2023-01-30T22:25:11.715Z,74.61
2023-01-30T22:28:18.479Z,74.68
2023-01-30T22:31:24.671Z,74.67
2023-01-30T22:34:32.776Z,74.24
2023-01-30T22:37:41.131Z,73.73
2023-01-30T22:40:46.581Z,73.88
2023-01-30T22:43:53.442Z,73.41
2023-01-30T22:46:59.002Z,73.13
2023-01-30T22:50:06.684Z,74.21
2023-01-30T22:53:11.932Z,73.67
2023-01-30T22:56:19.996Z,73.84
2023-01-30T22:59:25.295Z,74.00
2023-01-30T23:02:30.751Z,73.28
2023-01-30T23:05:39.204Z,72.08
2023-01-30T23:08:47.977Z,72.75
2023-01-30T23:12:08.386Z,73.25
2023-01-30T23:15:16.009Z,72.66
2023-01-30T23:18:41.703Z,71.92
2023-01-30T23:21:49.946Z,71.57
2023-01-30T23:24:55.348Z,71.30
2023-01-30T23:28:01.271Z,71.34
2023-01-30T23:31:11.328Z,71.03
2023-01-30T23:34:17.402Z,71.22
2023-01-30T23:37:44.846Z,70.57
2023-01-30T23:40:51.181Z,70.81
2023-01-30T23:43:57.171Z,71.02
2023-01-30T23:47:05.258Z,70.65
2023-01-30T23:50:12.606Z,71.07
2023-01-30T23:53:17.875Z,70.95
2023-01-30T23:56:24.061Z,70.47
2023-01-30T23:59:29.643Z,72.01
